Time;durP1;ratioP1;P1;durP2;ratioP2;P2;SDS_P1;SDS_P2;PMS_P1;PMS_P2;Temp;Humidity;BMP_temperature;BMP_pressure;BME280_temperature;BME280_humidity;BME280_pressure;Samples;Min_cycle;Max_cycle;Signal;HPM_P1;HPM_P2
2021/10/19 00:01:29;;;;;;;17.98;11.73;;;;;;;;;;5093838;28;20200;-80
2021/10/19 00:03:57;;;;;;;13.30;11.07;;;;;;;;;;5094548;28;20204;-80
2021/10/19 00:06:25;;;;;;;13.70;11.05;;;;;;;;;;5093499;28;20200;-81
2021/10/19 00:08:53;;;;;;;14.13;11.32;;;;;;;;;;5093880;28;20883;-80
2021/10/19 00:11:20;;;;;;;12.20;10.60;;;;;;;;;;5093367;28;20231;-80
2021/10/19 00:13:48;;;;;;;10.90;9.75;;;;;;;;;;5093437;28;20204;-80
2021/10/19 00:16:15;;;;;;;11.00;9.68;;;;;;;;;;5093792;28;20200;-80
2021/10/19 00:18:43;;;;;;;15.63;11.32;;;;;;;;;;5093330;28;20216;-80
2021/10/19 00:21:10;;;;;;;11.15;9.98;;;;;;;;;;5093808;28;20181;-81
2021/10/19 00:23:39;;;;;;;12.27;9.88;;;;;;;;;;5093778;28;20192;-80
2021/10/19 00:26:06;;;;;;;15.90;11.57;;;;;;;;;;5093774;28;20200;-79
2021/10/19 00:28:34;;;;;;;12.35;9.70;;;;;;;;;;5093449;28;20220;-80
2021/10/19 00:31:01;;;;;;;11.57;9.75;;;;;;;;;;5093363;28;20270;-80
2021/10/19 00:33:29;;;;;;;11.02;9.30;;;;;;;;;;5093495;28;20208;-80
2021/10/19 00:35:56;;;;;;;8.55;7.68;;;;;;;;;;5093861;28;20219;-81
2021/10/19 00:38:24;;;;;;;8.93;7.53;;;;;;;;;;5093330;28;20235;-80
2021/10/19 00:40:52;;;;;;;11.80;10.57;;;;;;;;;;5093413;28;20184;-80
2021/10/19 00:43:20;;;;;;;10.65;8.90;;;;;;;;;;5093350;28;20203;-80
2021/10/19 00:45:48;;;;;;;9.05;8.07;;;;;;;;;;5093058;28;20196;-80
2021/10/19 00:48:17;;;;;;;15.02;12.00;;;;;;;;;;5093343;28;20314;-80
2021/10/19 00:50:45;;;;;;;14.40;12.90;;;;;;;;;;5093472;28;20277;-81
2021/10/19 00:53:13;;;;;;;15.93;12.73;;;;;;;;;;5093483;28;20196;-81
2021/10/19 00:55:41;;;;;;;15.45;12.93;;;;;;;;;;5093373;28;20654;-80
2021/10/19 00:58:10;;;;;;;16.02;13.15;;;;;;;;;;5093176;28;20626;-80
2021/10/19 01:00:38;;;;;;;13.60;11.23;;;;;;;;;;5093062;28;20192;-80
2021/10/19 01:03:06;;;;;;;13.40;9.38;;;;;;;;;;5093228;28;20188;-80
2021/10/19 01:05:34;;;;;;;14.70;12.60;;;;;;;;;;5093190;28;20188;-80
2021/10/19 01:08:02;;;;;;;14.55;11.50;;;;;;;;;;5093533;28;20303;-82
2021/10/19 01:10:29;;;;;;;15.50;12.38;;;;;;;;;;5093243;28;20196;-81
2021/10/19 01:12:57;;;;;;;13.98;11.80;;;;;;;;;;5093275;28;20227;-80
2021/10/19 01:15:26;;;;;;;12.82;10.75;;;;;;;;;;5093074;28;20189;-80
2021/10/19 01:17:53;;;;;;;12.05;10.73;;;;;;;;;;5092549;28;20224;-80
2021/10/19 01:20:27;;;;;;;13.05;11.60;;;;;;;;;;5093241;28;20201;-80
2021/10/19 01:22:56;;;;;;;16.10;12.73;;;;;;;;;;5092941;28;20176;-79
2021/10/19 01:25:26;;;;;;;16.55;12.95;;;;;;;;;;5093164;28;20190;-80
2021/10/19 01:27:56;;;;;;;14.82;11.20;;;;;;;;;;5093233;28;20232;-80
2021/10/19 01:30:25;;;;;;;15.05;12.57;;;;;;;;;;5094698;28;20619;-80
2021/10/19 01:32:54;;;;;;;14.25;10.98;;;;;;;;;;5096359;28;20216;-80
2021/10/19 01:35:32;;;;;;;14.10;11.52;;;;;;;;;;5096687;28;20216;-80
2021/10/19 01:37:59;;;;;;;14.43;12.77;;;;;;;;;;5096818;28;20223;-80
2021/10/19 01:40:27;;;;;;;12.15;10.43;;;;;;;;;;5096721;28;20189;-80
2021/10/19 01:42:54;;;;;;;11.52;9.23;;;;;;;;;;5096521;28;20185;-80
2021/10/19 01:45:22;;;;;;;11.45;9.77;;;;;;;;;;5096870;28;20201;-80
2021/10/19 01:47:49;;;;;;;13.75;10.13;;;;;;;;;;5096585;28;20251;-80
2021/10/19 01:50:19;;;;;;;11.18;9.95;;;;;;;;;;5096746;28;20188;-80
2021/10/19 01:52:49;;;;;;;14.30;11.68;;;;;;;;;;5096454;28;20208;-80
2021/10/19 01:55:16;;;;;;;11.68;9.50;;;;;;;;;;5096202;28;20658;-80
2021/10/19 01:57:43;;;;;;;12.48;10.45;;;;;;;;;;5095983;28;20651;-80
2021/10/19 02:00:12;;;;;;;14.15;11.20;;;;;;;;;;5096095;28;20207;-80
2021/10/19 02:02:40;;;;;;;12.35;10.43;;;;;;;;;;5096062;28;20639;-80
2021/10/19 02:05:09;;;;;;;12.68;11.10;;;;;;;;;;5096290;28;20200;-80
2021/10/19 02:07:36;;;;;;;14.23;11.57;;;;;;;;;;5095792;28;20173;-80
2021/10/19 02:10:08;;;;;;;11.43;9.40;;;;;;;;;;5096232;28;20184;-80
2021/10/19 02:12:35;;;;;;;13.30;10.63;;;;;;;;;;5095996;28;20215;-80
2021/10/19 02:15:03;;;;;;;10.18;8.48;;;;;;;;;;5095874;28;20181;-80
2021/10/19 02:17:31;;;;;;;10.18;9.07;;;;;;;;;;5095625;28;20196;-80
2021/10/19 02:20:00;;;;;;;8.27;7.40;;;;;;;;;;5096327;28;20550;-80
2021/10/19 02:22:28;;;;;;;9.55;8.10;;;;;;;;;;5096038;28;20185;-81
2021/10/19 02:24:55;;;;;;;13.35;9.80;;;;;;;;;;5095918;28;20680;-81
2021/10/19 02:27:24;;;;;;;10.30;9.25;;;;;;;;;;5096045;28;20207;-81
2021/10/19 02:29:51;;;;;;;9.75;8.23;;;;;;;;;;5095526;28;20204;-80
2021/10/19 02:32:19;;;;;;;8.82;7.93;;;;;;;;;;5096243;28;20215;-80
2021/10/19 02:34:46;;;;;;;10.02;8.73;;;;;;;;;;5096258;28;20235;-81
2021/10/19 02:37:14;;;;;;;9.55;7.78;;;;;;;;;;5095345;28;20204;-80
2021/10/19 02:39:41;;;;;;;8.88;7.95;;;;;;;;;;5095702;28;20582;-80
2021/10/19 02:42:09;;;;;;;9.80;8.07;;;;;;;;;;5095168;28;20201;-80
2021/10/19 02:44:39;;;;;;;10.23;9.15;;;;;;;;;;5095633;28;20180;-81
2021/10/19 02:47:07;;;;;;;8.57;7.68;;;;;;;;;;5095913;28;20302;-80
2021/10/19 02:49:35;;;;;;;10.35;8.98;;;;;;;;;;5094960;28;20231;-81
2021/10/19 02:52:02;;;;;;;11.25;9.60;;;;;;;;;;5095461;28;20204;-80
2021/10/19 02:54:29;;;;;;;11.70;10.40;;;;;;;;;;5095656;28;20180;-80
2021/10/19 02:56:57;;;;;;;11.20;9.68;;;;;;;;;;5093623;28;20211;-80
2021/10/19 02:59:24;;;;;;;9.13;8.13;;;;;;;;;;5094364;28;20227;-80
2021/10/19 03:01:53;;;;;;;10.00;8.07;;;;;;;;;;5094222;28;20184;-80
2021/10/19 03:04:20;;;;;;;12.45;10.63;;;;;;;;;;5094618;28;20185;-81
2021/10/19 03:06:48;;;;;;;10.82;9.73;;;;;;;;;;5094721;28;20181;-80
2021/10/19 03:09:15;;;;;;;11.15;9.32;;;;;;;;;;5095104;28;20231;-80
2021/10/19 03:11:43;;;;;;;11.32;10.07;;;;;;;;;;5095343;28;20195;-80
2021/10/19 03:14:11;;;;;;;9.57;8.25;;;;;;;;;;5094882;28;20220;-80
2021/10/19 03:16:38;;;;;;;11.45;9.88;;;;;;;;;;5094924;28;20189;-81
2021/10/19 03:19:07;;;;;;;10.32;8.40;;;;;;;;;;5094719;28;20223;-82
2021/10/19 03:21:35;;;;;;;10.82;9.63;;;;;;;;;;5095027;28;20211;-82
2021/10/19 03:24:02;;;;;;;10.45;9.45;;;;;;;;;;5094793;28;20184;-81
2021/10/19 03:26:30;;;;;;;14.43;11.63;;;;;;;;;;5094851;28;20188;-82
2021/10/19 03:28:58;;;;;;;11.25;9.77;;;;;;;;;;5095033;28;20216;-81
2021/10/19 03:31:25;;;;;;;10.60;9.30;;;;;;;;;;5094731;28;20243;-81
2021/10/19 03:33:53;;;;;;;13.38;10.05;;;;;;;;;;5094390;28;20227;-81
2021/10/19 03:36:22;;;;;;;8.27;7.35;;;;;;;;;;5094772;28;20209;-80
2021/10/19 03:38:49;;;;;;;8.70;7.32;;;;;;;;;;5094591;28;20231;-81
2021/10/19 03:41:17;;;;;;;12.27;9.93;;;;;;;;;;5094251;28;20200;-81
2021/10/19 03:43:44;;;;;;;13.52;12.02;;;;;;;;;;5094296;28;20621;-81
2021/10/19 03:46:11;;;;;;;15.98;12.82;;;;;;;;;;5094255;28;20200;-80
2021/10/19 03:48:39;;;;;;;10.05;9.05;;;;;;;;;;5093891;28;20306;-80
2021/10/19 03:51:06;;;;;;;13.00;11.10;;;;;;;;;;5093976;28;20184;-80
2021/10/19 03:53:37;;;;;;;10.05;8.93;;;;;;;;;;5092497;28;20216;-80
2021/10/19 03:56:05;;;;;;;9.45;8.45;;;;;;;;;;5094214;28;20242;-80
2021/10/19 03:58:32;;;;;;;10.43;9.35;;;;;;;;;;5093642;28;20220;-80
2021/10/19 04:01:01;;;;;;;10.52;9.38;;;;;;;;;;5093929;28;20185;-80
2021/10/19 04:03:28;;;;;;;9.77;8.20;;;;;;;;;;5094037;28;20191;-80
2021/10/19 04:05:56;;;;;;;8.85;7.95;;;;;;;;;;5094208;28;20223;-80
2021/10/19 04:08:23;;;;;;;9.48;7.93;;;;;;;;;;5093803;28;20219;-80
2021/10/19 04:10:52;;;;;;;11.40;10.20;;;;;;;;;;5093780;28;20192;-80
2021/10/19 04:13:19;;;;;;;10.02;8.00;;;;;;;;;;5093820;28;20208;-80
2021/10/19 04:15:47;;;;;;;12.68;10.07;;;;;;;;;;5093954;28;20185;-80
2021/10/19 04:18:14;;;;;;;12.50;11.30;;;;;;;;;;5094013;28;20235;-80
2021/10/19 04:20:42;;;;;;;14.13;12.05;;;;;;;;;;5094533;28;20566;-80
2021/10/19 04:23:09;;;;;;;11.63;10.40;;;;;;;;;;5093667;28;20208;-80
2021/10/19 04:25:38;;;;;;;10.90;9.43;;;;;;;;;;5095253;28;20192;-80
2021/10/19 04:28:07;;;;;;;9.13;8.05;;;;;;;;;;5094158;28;20622;-80
2021/10/19 04:30:37;;;;;;;8.90;8.00;;;;;;;;;;5092788;28;20228;-80
2021/10/19 04:33:04;;;;;;;13.55;11.95;;;;;;;;;;5093743;28;20216;-80
2021/10/19 04:35:32;;;;;;;10.20;9.07;;;;;;;;;;5093309;28;20185;-80
2021/10/19 04:37:59;;;;;;;11.20;8.98;;;;;;;;;;5093312;28;20216;-80
2021/10/19 04:40:26;;;;;;;11.32;9.50;;;;;;;;;;5093138;28;20200;-80
2021/10/19 04:42:54;;;;;;;9.52;8.32;;;;;;;;;;5093316;28;20196;-80
2021/10/19 04:45:23;;;;;;;11.27;10.18;;;;;;;;;;5093082;28;20553;-80
2021/10/19 04:47:51;;;;;;;13.55;11.30;;;;;;;;;;5092921;28;20227;-80
2021/10/19 04:50:18;;;;;;;11.70;10.50;;;;;;;;;;5093357;28;20188;-80
2021/10/19 04:52:46;;;;;;;13.55;11.38;;;;;;;;;;5095516;28;20208;-81
2021/10/19 04:55:13;;;;;;;13.90;12.50;;;;;;;;;;5092782;28;20228;-80
2021/10/19 04:57:40;;;;;;;15.20;13.15;;;;;;;;;;5092840;28;20203;-80
2021/10/19 05:00:09;;;;;;;13.13;11.65;;;;;;;;;;5093649;28;20188;-80
2021/10/19 05:02:48;;;;;;;13.55;11.27;;;;;;;;;;5093002;28;20207;-81
2021/10/19 05:05:17;;;;;;;14.55;13.00;;;;;;;;;;5097333;28;20188;-80
2021/10/19 05:07:44;;;;;;;18.73;13.02;;;;;;;;;;5097110;28;20531;-80
2021/10/19 05:10:12;;;;;;;13.00;11.55;;;;;;;;;;5097687;28;20188;-81
2021/10/19 05:12:39;;;;;;;13.70;12.23;;;;;;;;;;5098596;28;20204;-80
2021/10/19 05:15:08;;;;;;;14.35;12.48;;;;;;;;;;5099005;28;20209;-81
2021/10/19 05:17:36;;;;;;;11.60;10.32;;;;;;;;;;5098146;28;20204;-81
2021/10/19 05:20:07;;;;;;;12.70;10.75;;;;;;;;;;5096124;28;20678;-80
2021/10/19 05:22:35;;;;;;;12.48;10.05;;;;;;;;;;5098214;28;20200;-80
2021/10/19 05:25:02;;;;;;;11.98;10.48;;;;;;;;;;5097909;28;20192;-80
2021/10/19 05:27:30;;;;;;;16.88;13.10;;;;;;;;;;5098709;28;20184;-80
2021/10/19 05:29:57;;;;;;;13.45;11.10;;;;;;;;;;5097395;28;20235;-81
2021/10/19 05:32:25;;;;;;;12.07;10.77;;;;;;;;;;5077691;28;20208;-81
2021/10/19 05:34:53;;;;;;;14.05;11.02;;;;;;;;;;5096008;28;20717;-80
2021/10/19 05:37:21;;;;;;;8.57;7.70;;;;;;;;;;5097900;28;20188;-80
2021/10/19 05:39:49;;;;;;;11.02;9.82;;;;;;;;;;5096829;28;20216;-80
2021/10/19 05:42:16;;;;;;;14.18;12.45;;;;;;;;;;5097669;28;20203;-80
2021/10/19 05:44:44;;;;;;;13.65;11.52;;;;;;;;;;5097345;28;20196;-80
2021/10/19 05:47:11;;;;;;;13.30;11.25;;;;;;;;;;5097767;28;20543;-81
2021/10/19 05:49:39;;;;;;;11.65;9.88;;;;;;;;;;5097491;28;20212;-81
2021/10/19 05:52:06;;;;;;;14.82;11.57;;;;;;;;;;5098662;28;20242;-81
2021/10/19 05:54:35;;;;;;;13.02;11.50;;;;;;;;;;5098437;28;20229;-81
2021/10/19 05:57:03;;;;;;;11.70;9.13;;;;;;;;;;5078034;28;20192;-81
2021/10/19 05:59:31;;;;;;;9.52;8.13;;;;;;;;;;5084038;28;20216;-81
2021/10/19 06:01:59;;;;;;;9.00;7.72;;;;;;;;;;5097347;28;20576;-81
2021/10/19 06:04:27;;;;;;;10.38;9.18;;;;;;;;;;5098142;28;20615;-80
2021/10/19 06:06:56;;;;;;;13.88;11.57;;;;;;;;;;5098082;28;20639;-81
2021/10/19 06:09:24;;;;;;;13.80;10.80;;;;;;;;;;5097459;28;20227;-82
2021/10/19 06:11:53;;;;;;;11.48;10.18;;;;;;;;;;5094083;28;20201;-81
2021/10/19 06:14:22;;;;;;;13.15;11.40;;;;;;;;;;5097804;28;20208;-80
2021/10/19 06:16:50;;;;;;;14.90;12.50;;;;;;;;;;5096484;28;20181;-81
2021/10/19 06:19:17;;;;;;;17.73;14.30;;;;;;;;;;5096812;28;20249;-82
2021/10/19 06:21:45;;;;;;;14.75;12.10;;;;;;;;;;5097491;28;20204;-81
2021/10/19 06:24:12;;;;;;;14.90;13.40;;;;;;;;;;5097066;28;20189;-81
2021/10/19 06:26:40;;;;;;;14.48;12.25;;;;;;;;;;5096961;28;20188;-80
2021/10/19 06:29:11;;;;;;;16.75;13.30;;;;;;;;;;5096880;28;20220;-80
2021/10/19 06:31:41;;;;;;;16.17;13.82;;;;;;;;;;5096826;28;20243;-80
2021/10/19 06:34:08;;;;;;;15.43;12.55;;;;;;;;;;5097328;28;20206;-81
2021/10/19 06:36:36;;;;;;;13.63;12.23;;;;;;;;;;5097447;28;20194;-81
2021/10/19 06:39:04;;;;;;;13.88;11.80;;;;;;;;;;5097011;28;20216;-80
2021/10/19 06:41:32;;;;;;;13.48;12.07;;;;;;;;;;5097387;28;20193;-81
2021/10/19 06:43:59;;;;;;;15.02;12.70;;;;;;;;;;5095879;28;20197;-81
2021/10/19 06:46:29;;;;;;;16.77;13.32;;;;;;;;;;5097193;28;20184;-82
2021/10/19 06:48:57;;;;;;;15.35;13.45;;;;;;;;;;5097220;28;20706;-81
2021/10/19 06:51:24;;;;;;;13.75;12.05;;;;;;;;;;5096805;28;20206;-81
2021/10/19 06:53:51;;;;;;;15.88;12.50;;;;;;;;;;5096981;28;20212;-81
2021/10/19 06:56:19;;;;;;;14.13;11.85;;;;;;;;;;5097031;28;20208;-81
2021/10/19 06:58:46;;;;;;;10.40;9.30;;;;;;;;;;5097206;28;20222;-81
2021/10/19 07:01:15;;;;;;;13.00;11.65;;;;;;;;;;5097188;28;20181;-80
2021/10/19 07:03:44;;;;;;;11.80;10.25;;;;;;;;;;5097308;28;20184;-81
2021/10/19 07:06:13;;;;;;;13.10;11.00;;;;;;;;;;5097129;28;20196;-81
2021/10/19 07:08:40;;;;;;;11.55;10.32;;;;;;;;;;5097097;28;20334;-80
2021/10/19 07:11:10;;;;;;;11.07;9.98;;;;;;;;;;5096620;28;20209;-81
2021/10/19 07:13:38;;;;;;;11.60;10.30;;;;;;;;;;5095966;28;20195;-83
2021/10/19 07:16:06;;;;;;;12.20;9.75;;;;;;;;;;5095710;28;20223;-82
2021/10/19 07:18:33;;;;;;;8.93;7.75;;;;;;;;;;5095794;28;20220;-81
2021/10/19 07:21:02;;;;;;;11.60;10.43;;;;;;;;;;5096615;28;20185;-81
2021/10/19 07:23:29;;;;;;;10.65;9.35;;;;;;;;;;5096118;28;20191;-81
2021/10/19 07:25:58;;;;;;;12.85;10.27;;;;;;;;;;5095816;28;20181;-80
2021/10/19 07:28:25;;;;;;;9.90;8.90;;;;;;;;;;5095678;28;20235;-81
2021/10/19 07:30:53;;;;;;;11.45;10.05;;;;;;;;;;5095758;28;20224;-81
2021/10/19 07:33:20;;;;;;;11.90;10.45;;;;;;;;;;5095452;28;20203;-80
2021/10/19 07:35:48;;;;;;;10.10;9.05;;;;;;;;;;5095412;28;20205;-81
2021/10/19 07:38:18;;;;;;;10.88;9.77;;;;;;;;;;5095197;28;20226;-81
2021/10/19 07:40:45;;;;;;;11.63;10.32;;;;;;;;;;5095245;28;20196;-81
2021/10/19 07:43:13;;;;;;;10.45;9.27;;;;;;;;;;5095629;28;20207;-81
2021/10/19 07:45:42;;;;;;;10.15;9.02;;;;;;;;;;5095557;28;20200;-81
2021/10/19 07:48:09;;;;;;;10.38;9.27;;;;;;;;;;5095310;28;20698;-80
2021/10/19 07:50:37;;;;;;;9.88;8.88;;;;;;;;;;5095462;28;20188;-80
2021/10/19 07:53:04;;;;;;;11.65;10.55;;;;;;;;;;5094366;28;20192;-80
2021/10/19 07:55:33;;;;;;;9.43;8.45;;;;;;;;;;5095192;28;20216;-81
2021/10/19 07:58:01;;;;;;;10.85;9.73;;;;;;;;;;5095598;28;20216;-81
2021/10/19 08:00:30;;;;;;;9.65;8.23;;;;;;;;;;5095044;28;20570;-81
2021/10/19 08:02:59;;;;;;;9.57;8.68;;;;;;;;;;5094661;28;20196;-81
2021/10/19 08:05:29;;;;;;;8.73;7.93;;;;;;;;;;5095082;28;20195;-80
2021/10/19 08:08:07;;;;;;;8.48;7.28;;;;;;;;;;5094954;28;20725;-80
2021/10/19 08:10:37;;;;;;;6.80;6.20;;;;;;;;;;5094976;28;20207;-81
2021/10/19 08:13:06;;;;;;;6.93;6.05;;;;;;;;;;5095512;28;20196;-81
2021/10/19 08:15:34;;;;;;;8.30;6.75;;;;;;;;;;5094730;28;20735;-81
2021/10/19 08:18:02;;;;;;;5.90;5.50;;;;;;;;;;5095424;28;20260;-80
2021/10/19 08:20:30;;;;;;;8.45;7.65;;;;;;;;;;5095139;28;20181;-81
2021/10/19 08:22:57;;;;;;;6.75;6.10;;;;;;;;;;5088609;28;20196;-82
2021/10/19 08:25:25;;;;;;;6.15;5.55;;;;;;;;;;5094052;28;20199;-81
2021/10/19 08:27:54;;;;;;;9.00;7.60;;;;;;;;;;5093803;28;20214;-80
2021/10/19 08:30:22;;;;;;;7.25;6.57;;;;;;;;;;5094264;28;20224;-81
2021/10/19 08:32:51;;;;;;;7.25;6.57;;;;;;;;;;5095035;28;20200;-81
2021/10/19 08:35:22;;;;;;;6.00;5.50;;;;;;;;;;5094136;28;20200;-81
2021/10/19 08:37:50;;;;;;;6.38;5.75;;;;;;;;;;5094936;28;20585;-81
2021/10/19 08:40:18;;;;;;;8.93;8.10;;;;;;;;;;5094095;28;20542;-82
2021/10/19 08:42:47;;;;;;;6.50;5.78;;;;;;;;;;5094207;28;20185;-81
2021/10/19 08:45:17;;;;;;;6.13;5.63;;;;;;;;;;5094722;28;20550;-81
2021/10/19 08:47:47;;;;;;;6.13;5.35;;;;;;;;;;5094638;28;20196;-81
2021/10/19 08:50:18;;;;;;;6.30;5.70;;;;;;;;;;5094208;28;20669;-81
2021/10/19 08:52:46;;;;;;;4.93;4.53;;;;;;;;;;5094561;28;20207;-81
2021/10/19 08:55:14;;;;;;;5.35;4.85;;;;;;;;;;5094717;28;20185;-81
2021/10/19 08:57:41;;;;;;;5.53;5.03;;;;;;;;;;5094558;28;20666;-82
2021/10/19 09:00:11;;;;;;;5.20;4.70;;;;;;;;;;5094116;28;20211;-82
2021/10/19 09:02:41;;;;;;;5.32;4.82;;;;;;;;;;5094817;28;20195;-81
2021/10/19 09:05:16;;;;;;;4.65;4.25;;;;;;;;;;5094490;28;20196;-81
2021/10/19 09:07:57;;;;;;;6.00;4.28;;;;;;;;;;5094304;28;20547;-81
2021/10/19 09:10:25;;;;;;;3.60;3.30;;;;;;;;;;5094794;28;20188;-81
2021/10/19 09:12:58;;;;;;;3.63;3.33;;;;;;;;;;5094325;28;20244;-82
2021/10/19 09:15:27;;;;;;;3.80;3.50;;;;;;;;;;5094554;28;20192;-81
2021/10/19 09:18:01;;;;;;;4.07;3.72;;;;;;;;;;5094360;28;20706;-81
2021/10/19 09:20:29;;;;;;;4.55;4.15;;;;;;;;;;5094635;28;20185;-83
2021/10/19 09:23:00;;;;;;;4.13;3.83;;;;;;;;;;5094861;28;20200;-82
2021/10/19 09:25:32;;;;;;;4.53;4.13;;;;;;;;;;5094305;28;20191;-82
2021/10/19 09:28:01;;;;;;;4.57;4.18;;;;;;;;;;5094615;28;20243;-82
2021/10/19 09:30:40;;;;;;;3.72;3.42;;;;;;;;;;5094565;28;20259;-82
2021/10/19 09:33:13;;;;;;;3.75;3.45;;;;;;;;;;5094125;28;20557;-82
2021/10/19 09:35:40;;;;;;;4.28;3.97;;;;;;;;;;5094198;28;20199;-82
2021/10/19 09:38:10;;;;;;;4.35;3.83;;;;;;;;;;5094208;28;20228;-82
2021/10/19 09:40:41;;;;;;;4.43;4.03;;;;;;;;;;5094234;28;20181;-81
2021/10/19 09:43:11;;;;;;;3.50;3.20;;;;;;;;;;5094346;28;20266;-81
2021/10/19 09:45:42;;;;;;;4.35;4.00;;;;;;;;;;5094283;28;20188;-82
2021/10/19 09:48:15;;;;;;;5.00;4.60;;;;;;;;;;5094156;28;20223;-82
2021/10/19 09:50:43;;;;;;;3.58;3.28;;;;;;;;;;5095145;28;20196;-82
2021/10/19 09:53:12;;;;;;;2.90;2.70;;;;;;;;;;5097739;28;20632;-81
2021/10/19 09:55:41;;;;;;;3.38;3.08;;;;;;;;;;5098421;28;20208;-82
2021/10/19 09:58:09;;;;;;;4.47;4.07;;;;;;;;;;5097779;28;20220;-82
2021/10/19 10:00:37;;;;;;;4.43;4.03;;;;;;;;;;5098602;28;20195;-81
2021/10/19 10:03:05;;;;;;;4.70;4.30;;;;;;;;;;5098240;28;20602;-81
2021/10/19 10:05:35;;;;;;;4.47;4.10;;;;;;;;;;5098491;28;20558;-82
2021/10/19 10:08:03;;;;;;;4.05;3.72;;;;;;;;;;5098794;28;20295;-82
2021/10/19 10:10:31;;;;;;;4.32;4.03;;;;;;;;;;5099229;28;20285;-81
2021/10/19 10:13:04;;;;;;;4.32;3.92;;;;;;;;;;5099218;28;20192;-81
2021/10/19 10:15:34;;;;;;;5.45;4.75;;;;;;;;;;5098177;28;20192;-81
2021/10/19 10:18:03;;;;;;;5.25;4.82;;;;;;;;;;5097779;28;20220;-81
2021/10/19 10:20:38;;;;;;;3.92;3.63;;;;;;;;;;5097199;28;20711;-81
2021/10/19 10:23:19;;;;;;;4.18;3.88;;;;;;;;;;5096906;28;20184;-81
2021/10/19 10:25:50;;;;;;;5.25;4.78;;;;;;;;;;5097457;28;20195;-82
2021/10/19 10:28:27;;;;;;;4.72;4.32;;;;;;;;;;5097406;28;20218;-81
2021/10/19 10:30:56;;;;;;;4.57;4.18;;;;;;;;;;5097212;28;20303;-81
2021/10/19 10:33:34;;;;;;;4.82;4.43;;;;;;;;;;5097603;28;20663;-81
2021/10/19 10:36:06;;;;;;;4.68;4.28;;;;;;;;;;5097491;28;20215;-82
2021/10/19 10:38:34;;;;;;;4.35;4.05;;;;;;;;;;5096945;28;20220;-81
2021/10/19 10:41:12;;;;;;;4.53;4.05;;;;;;;;;;5096525;28;20656;-81
2021/10/19 10:43:40;;;;;;;4.82;4.22;;;;;;;;;;5096686;28;20202;-81
2021/10/19 10:46:10;;;;;;;4.60;4.20;;;;;;;;;;5097231;28;20204;-81
2021/10/19 10:48:38;;;;;;;4.65;4.25;;;;;;;;;;5096998;28;20212;-80
2021/10/19 10:51:09;;;;;;;4.40;4.03;;;;;;;;;;5096835;28;20288;-81
2021/10/19 10:53:39;;;;;;;4.82;4.43;;;;;;;;;;5097022;28;20685;-81
2021/10/19 10:56:09;;;;;;;3.88;3.58;;;;;;;;;;5096869;28;20567;-81
2021/10/19 10:58:39;;;;;;;4.35;3.95;;;;;;;;;;5096930;28;20220;-80
2021/10/19 11:01:19;;;;;;;4.50;4.10;;;;;;;;;;5097102;28;20185;-81
2021/10/19 11:03:48;;;;;;;3.60;3.30;;;;;;;;;;5096954;28;20192;-81
2021/10/19 11:06:19;;;;;;;3.70;3.33;;;;;;;;;;5096698;28;20776;-81
2021/10/19 11:08:48;;;;;;;4.43;3.75;;;;;;;;;;5097217;28;20216;-81
2021/10/19 11:11:19;;;;;;;4.95;4.55;;;;;;;;;;5092881;28;20201;-81
2021/10/19 11:13:55;;;;;;;4.07;3.50;;;;;;;;;;5095394;28;20195;-82
2021/10/19 11:16:33;;;;;;;3.95;3.65;;;;;;;;;;5096504;28;20196;-80
2021/10/19 11:19:03;;;;;;;3.17;2.90;;;;;;;;;;5096228;28;20230;-79
2021/10/19 11:21:32;;;;;;;3.65;3.35;;;;;;;;;;5096372;28;20532;-81
2021/10/19 11:24:00;;;;;;;4.35;3.80;;;;;;;;;;5095528;28;20204;-81
2021/10/19 11:26:27;;;;;;;3.80;3.50;;;;;;;;;;5095813;28;20181;-80
2021/10/19 11:28:59;;;;;;;3.15;2.88;;;;;;;;;;5095530;28;20232;-80
2021/10/19 11:31:28;;;;;;;3.70;3.22;;;;;;;;;;5094930;28;20614;-80
2021/10/19 11:33:57;;;;;;;3.38;3.08;;;;;;;;;;5095374;28;20639;-80
2021/10/19 11:36:25;;;;;;;3.05;2.85;;;;;;;;;;5095701;28;20189;-81
2021/10/19 11:38:57;;;;;;;3.75;3.45;;;;;;;;;;5095981;28;20806;-80
2021/10/19 11:41:28;;;;;;;3.80;3.50;;;;;;;;;;5098293;28;20184;-81
2021/10/19 11:43:58;;;;;;;3.72;3.42;;;;;;;;;;5091172;28;20205;-80
2021/10/19 11:46:28;;;;;;;3.28;2.97;;;;;;;;;;5084967;28;20204;-80
2021/10/19 11:48:57;;;;;;;3.15;2.92;;;;;;;;;;5086808;28;20231;-80
2021/10/19 11:51:26;;;;;;;2.85;2.65;;;;;;;;;;5095189;28;20573;-80
2021/10/19 11:53:59;;;;;;;2.20;2.10;;;;;;;;;;5095062;28;20184;-80
2021/10/19 11:56:30;;;;;;;2.90;2.70;;;;;;;;;;5094519;28;20201;-80
2021/10/19 11:59:02;;;;;;;2.75;2.55;;;;;;;;;;5082572;28;20229;-81
2021/10/19 12:01:36;;;;;;;3.03;2.83;;;;;;;;;;5074697;28;20219;-80
2021/10/19 12:04:06;;;;;;;4.45;3.00;;;;;;;;;;5074845;28;20195;-81
2021/10/19 12:06:35;;;;;;;2.88;2.67;;;;;;;;;;5075139;28;20196;-81
2021/10/19 12:09:14;;;;;;;2.58;2.38;;;;;;;;;;5074450;28;20232;-80
2021/10/19 12:11:48;;;;;;;2.67;2.50;;;;;;;;;;5074715;28;20189;-80
2021/10/19 12:14:17;;;;;;;3.60;3.20;;;;;;;;;;5074297;28;20189;-81
2021/10/19 12:16:54;;;;;;;3.33;3.03;;;;;;;;;;5074966;28;20191;-81
2021/10/19 12:19:21;;;;;;;2.70;2.50;;;;;;;;;;5073895;28;20246;-80
2021/10/19 12:21:53;;;;;;;3.50;3.20;;;;;;;;;;5074602;28;20184;-80
2021/10/19 12:24:23;;;;;;;2.28;2.17;;;;;;;;;;5074529;28;20632;-80
2021/10/19 12:27:00;;;;;;;2.35;2.25;;;;;;;;;;5074279;28;20576;-80
2021/10/19 12:29:31;;;;;;;3.10;2.90;;;;;;;;;;5074210;28;20220;-80
2021/10/19 12:31:59;;;;;;;2.05;1.95;;;;;;;;;;5074202;28;20710;-80
2021/10/19 12:34:28;;;;;;;3.95;2.60;;;;;;;;;;5074358;28;20291;-81
2021/10/19 12:37:01;;;;;;;2.05;1.95;;;;;;;;;;5074809;28;20208;-81
2021/10/19 12:39:31;;;;;;;2.60;2.40;;;;;;;;;;5074404;28;20224;-81
2021/10/19 12:41:59;;;;;;;2.83;2.63;;;;;;;;;;5075030;28;20186;-81
2021/10/19 12:44:27;;;;;;;2.58;2.38;;;;;;;;;;5074782;28;20602;-80
2021/10/19 12:46:58;;;;;;;2.05;1.95;;;;;;;;;;5074803;28;20193;-81
2021/10/19 12:49:25;;;;;;;2.83;2.63;;;;;;;;;;5074567;28;20221;-81
2021/10/19 12:51:53;;;;;;;2.28;2.17;;;;;;;;;;5074246;28;20192;-81
2021/10/19 12:54:21;;;;;;;3.00;2.80;;;;;;;;;;5074282;28;20201;-81
2021/10/19 12:56:52;;;;;;;2.72;2.53;;;;;;;;;;5074261;28;20193;-81
2021/10/19 12:59:20;;;;;;;2.10;2.00;;;;;;;;;;5074659;28;20315;-81
2021/10/19 13:01:48;;;;;;;3.00;2.78;;;;;;;;;;5074842;28;20189;-81
2021/10/19 13:04:15;;;;;;;2.17;2.08;;;;;;;;;;5074194;28;20189;-81
2021/10/19 13:06:43;;;;;;;2.30;2.20;;;;;;;;;;5074730;28;20205;-80
2021/10/19 13:09:10;;;;;;;2.20;2.10;;;;;;;;;;5074017;28;20217;-82
2021/10/19 13:11:37;;;;;;;2.72;2.53;;;;;;;;;;5074356;28;20185;-82
2021/10/19 13:14:07;;;;;;;2.58;2.40;;;;;;;;;;5074127;28;20211;-81
2021/10/19 13:16:34;;;;;;;2.63;2.42;;;;;;;;;;5074277;28;20177;-81
2021/10/19 13:19:02;;;;;;;2.83;2.63;;;;;;;;;;5074230;28;20221;-81
2021/10/19 13:21:29;;;;;;;2.33;2.22;;;;;;;;;;5074434;28;20270;-81
2021/10/19 13:23:56;;;;;;;2.70;2.50;;;;;;;;;;5074316;28;20205;-82
2021/10/19 13:26:25;;;;;;;2.78;2.58;;;;;;;;;;5078259;28;20208;-82
2021/10/19 13:28:52;;;;;;;2.70;2.50;;;;;;;;;;5079070;28;20225;-81
2021/10/19 13:31:21;;;;;;;2.67;2.47;;;;;;;;;;5078265;28;20274;-81
2021/10/19 13:33:49;;;;;;;2.20;2.10;;;;;;;;;;5078672;28;20182;-81
2021/10/19 13:36:16;;;;;;;2.75;2.55;;;;;;;;;;5078627;28;20185;-81
2021/10/19 13:38:44;;;;;;;2.97;2.78;;;;;;;;;;5078084;28;20228;-82
2021/10/19 13:41:11;;;;;;;3.00;2.80;;;;;;;;;;5078282;28;20187;-81
2021/10/19 13:43:38;;;;;;;2.45;2.25;;;;;;;;;;5078153;28;20197;-81
2021/10/19 13:46:06;;;;;;;3.10;2.85;;;;;;;;;;5078626;28;20596;-81
2021/10/19 13:48:38;;;;;;;3.20;2.90;;;;;;;;;;5078104;28;20307;-81
2021/10/19 13:51:05;;;;;;;3.42;3.13;;;;;;;;;;5078096;28;20202;-81
2021/10/19 13:53:33;;;;;;;3.15;2.95;;;;;;;;;;5078066;28;20216;-81
2021/10/19 13:56:00;;;;;;;2.58;2.38;;;;;;;;;;5077821;28;20177;-81
2021/10/19 13:58:29;;;;;;;3.28;3.08;;;;;;;;;;5077845;28;20228;-81
2021/10/19 14:00:56;;;;;;;2.72;2.53;;;;;;;;;;5077888;28;20204;-81
2021/10/19 14:03:24;;;;;;;5.03;3.17;;;;;;;;;;5077665;28;20547;-81
2021/10/19 14:05:52;;;;;;;2.78;2.58;;;;;;;;;;5077520;28;20201;-81
2021/10/19 14:08:20;;;;;;;3.42;3.05;;;;;;;;;;5077675;28;20703;-82
2021/10/19 14:10:47;;;;;;;2.90;2.60;;;;;;;;;;5078218;28;20184;-82
2021/10/19 14:13:15;;;;;;;2.30;2.20;;;;;;;;;;5077930;28;20181;-81
2021/10/19 14:15:43;;;;;;;2.65;2.45;;;;;;;;;;5077602;28;20555;-81
2021/10/19 14:18:10;;;;;;;3.40;3.10;;;;;;;;;;5077955;28;20713;-83
2021/10/19 14:20:38;;;;;;;3.70;3.40;;;;;;;;;;5077178;28;20209;-81
2021/10/19 14:23:07;;;;;;;2.80;2.60;;;;;;;;;;5077670;28;20181;-81
2021/10/19 14:25:35;;;;;;;2.78;2.58;;;;;;;;;;5077822;28;20208;-81
2021/10/19 14:28:03;;;;;;;3.45;2.92;;;;;;;;;;5077379;28;20217;-81
2021/10/19 14:30:32;;;;;;;2.67;2.47;;;;;;;;;;5077082;28;20239;-81
2021/10/19 14:33:00;;;;;;;3.17;2.90;;;;;;;;;;5077541;28;20236;-81
2021/10/19 14:35:27;;;;;;;3.20;2.92;;;;;;;;;;5080525;28;20650;-82
2021/10/19 14:37:55;;;;;;;3.25;3.05;;;;;;;;;;5096781;28;20236;-81
2021/10/19 14:40:23;;;;;;;4.07;3.70;;;;;;;;;;5098050;28;20200;-84
2021/10/19 14:42:51;;;;;;;3.15;2.95;;;;;;;;;;5097401;28;20203;-81